Wahpeton, Iowa
Current Conditions -  °F | °C
As of 7:34 PM on Wednesday 26 Nov 2014 (Local Time) from KMJQ Reporting Station
Overcast Overcast  
Wind Chill: -5°   Ceiling: 1400
Heat Index: 12°   Visibility: 10mi
Dew Point:   Wind: 17mph
Humidity: 85%   Direction: 310°NW
Pressure: 30.34"   Gusts: 21mph
Location:  43.4265°N, 95.1547°W
Report Text: KMJQ 270134Z AUTO 31015G18KT 10SM OVC014 M11/M13 A3034 RMK AO2
Loading
Personal Weather Stations






























Interactive Weather Map New forecast layout! Learn more

10-Day Weather Forecast

Advertisements
Track Severe Weather on mobile